Terminal Aerodrome Forecast
Issued by NWS Cleveland, OH

Home | Current Version | Previous Version | Text Only | Print | Product List | Glossary Off
Versions: 1 2 3 4 5 6 7 8 9 10 11 12 13 14 15 16 17 18 19 20 21 22

003
FTUS41 KCLE 011125
TAFERI
TAF
KERI 011125Z 0112/0212 09005KT 6SM -DZ BR OVC010
     FM011500 03006KT 6SM BR OVC015
     FM011800 03006KT P6SM OVC015
     FM020100 VRB03KT 4SM BR OVC007
     FM020500 VRB03KT 4SM -RA BR OVC004=

USA.gov is the U.S. government's official web portal to all federal, state and local government web resources and services.